createdAt,value
2023-04-03T00:00:01.278Z,1027.62
2023-04-03T00:01:09.931Z,1027.63
2023-04-03T00:02:01.227Z,1027.62
2023-04-03T00:03:01.188Z,1027.68
2023-04-03T00:04:01.526Z,1027.64
2023-04-03T00:05:04.307Z,1027.67
2023-04-03T00:06:12.983Z,1027.68
2023-04-03T00:07:01.915Z,1027.65
2023-04-03T00:08:01.447Z,1027.68
2023-04-03T00:09:00.589Z,1027.7
2023-04-03T00:10:00.255Z,1027.65
2023-04-03T00:11:14.868Z,1027.73
2023-04-03T00:12:02.124Z,1027.7
2023-04-03T00:13:01.895Z,1027.72
2023-04-03T00:14:02.092Z,1027.71
2023-04-03T00:15:01.210Z,1027.73
2023-04-03T00:16:01.219Z,1027.72
2023-04-03T00:17:01.902Z,1027.73
2023-04-03T00:18:01.136Z,1027.72
2023-04-03T00:19:01.119Z,1027.73
2023-04-03T00:20:01.147Z,1027.72
2023-04-03T00:21:01.040Z,1027.75
2023-04-03T00:22:01.163Z,1027.74
2023-04-03T00:23:01.063Z,1027.77
2023-04-03T00:24:01.055Z,1027.78
2023-04-03T00:25:01.099Z,1027.79
2023-04-03T00:26:01.079Z,1027.75
2023-04-03T00:27:01.467Z,1027.79
2023-04-03T00:28:01.196Z,1027.8
2023-04-03T00:29:01.078Z,1027.79
2023-04-03T00:30:01.091Z,1027.84
2023-04-03T00:31:01.135Z,1027.82
2023-04-03T00:32:01.113Z,1027.84
2023-04-03T00:33:01.127Z,1027.8
2023-04-03T00:34:01.453Z,1027.81
2023-04-03T00:35:01.504Z,1027.85
2023-04-03T00:36:02.611Z,1027.81
2023-04-03T00:37:01.135Z,1027.85
2023-04-03T00:38:01.053Z,1027.8
2023-04-03T00:39:01.050Z,1027.79
2023-04-03T00:40:01.050Z,1027.81
2023-04-03T00:41:01.215Z,1027.8
2023-04-03T00:42:01.054Z,1027.79
2023-04-03T00:43:01.080Z,1027.81
2023-04-03T00:44:00.659Z,1027.82
2023-04-03T00:45:00.267Z,1027.81
2023-04-03T00:45:59.863Z,1027.82
2023-04-03T00:46:59.596Z,1027.83
2023-04-03T00:48:01.264Z,1027.76
2023-04-03T00:49:02.538Z,1027.79
2023-04-03T00:50:01.115Z,1027.83
2023-04-03T00:51:01.128Z,1027.83
2023-04-03T00:52:01.290Z,1027.88
2023-04-03T00:53:01.223Z,1027.92
2023-04-03T00:54:01.154Z,1027.86
2023-04-03T00:55:01.773Z,1027.9
2023-04-03T00:56:01.063Z,1027.85
2023-04-03T00:57:01.174Z,1027.85
2023-04-03T00:58:01.462Z,1027.82
2023-04-03T00:59:01.889Z,1027.85
2023-04-03T01:00:01.072Z,1027.84
2023-04-03T01:01:01.071Z,1027.86
2023-04-03T01:02:01.182Z,1027.82
2023-04-03T01:03:01.163Z,1027.85
2023-04-03T01:04:01.180Z,1027.84
2023-04-03T01:05:02.010Z,1027.9
2023-04-03T01:06:01.115Z,1027.8
2023-04-03T01:07:01.512Z,1027.88
2023-04-03T01:08:01.126Z,1027.86
2023-04-03T01:09:01.769Z,1027.86
2023-04-03T01:10:01.035Z,1027.88
2023-04-03T01:11:01.033Z,1027.87
2023-04-03T01:12:01.051Z,1027.88
2023-04-03T01:13:01.124Z,1027.89
2023-04-03T01:14:02.605Z,1027.88
2023-04-03T01:15:01.955Z,1027.87
2023-04-03T01:16:01.338Z,1027.88
2023-04-03T01:17:01.077Z,1027.88
2023-04-03T01:18:01.942Z,1027.9
2023-04-03T01:19:01.422Z,1027.89
2023-04-03T01:20:01.741Z,1027.89
2023-04-03T01:21:01.140Z,1027.91
2023-04-03T01:22:02.123Z,1027.91
2023-04-03T01:23:01.140Z,1027.89
2023-04-03T01:24:01.394Z,1027.87
2023-04-03T01:25:01.255Z,1027.84
2023-04-03T01:26:01.317Z,1027.81
2023-04-03T01:27:02.276Z,1027.84
2023-04-03T01:28:02.178Z,1027.84
2023-04-03T01:29:02.526Z,1027.84
2023-04-03T01:30:01.035Z,1027.88
2023-04-03T01:31:01.128Z,1027.89
2023-04-03T01:32:05.281Z,1027.94
2023-04-03T01:33:01.133Z,1027.87
2023-04-03T01:34:01.311Z,1027.88
2023-04-03T01:35:01.483Z,1027.96
2023-04-03T01:36:04.030Z,1027.92
2023-04-03T01:37:08.007Z,1027.93
2023-04-03T01:38:02.002Z,1027.91
2023-04-03T01:39:01.123Z,1027.96
2023-04-03T01:40:01.132Z,1027.95
2023-04-03T01:41:01.141Z,1027.95
2023-04-03T01:42:11.053Z,1027.99
2023-04-03T01:43:01.537Z,1027.97
2023-04-03T01:44:01.948Z,1028.02
2023-04-03T01:45:01.228Z,1028.03
2023-04-03T01:46:02.037Z,1028.04
2023-04-03T01:47:14.314Z,1028.01
2023-04-03T01:48:01.129Z,1028.03
2023-04-03T01:49:01.872Z,1028.01
2023-04-03T01:50:01.137Z,1028.1
2023-04-03T01:51:01.224Z,1028.06
2023-04-03T01:52:16.786Z,1028.1
2023-04-03T01:53:03.950Z,1028.02
2023-04-03T01:54:01.107Z,1028.08
2023-04-03T01:55:01.116Z,1028.12
2023-04-03T01:56:01.175Z,1028.14
2023-04-03T01:57:01.198Z,1028.15
2023-04-03T01:58:01.296Z,1028.09
2023-04-03T01:59:01.361Z,1028.15
2023-04-03T02:00:03.588Z,1028.18
2023-04-03T02:01:01.081Z,1028.14
2023-04-03T02:02:01.026Z,1028.19
2023-04-03T02:03:01.777Z,1028.12
2023-04-03T02:04:01.127Z,1028.14
2023-04-03T02:05:01.077Z,1028.15
2023-04-03T02:06:01.105Z,1028.18
2023-04-03T02:07:01.086Z,1028.16
2023-04-03T02:08:01.117Z,1028.17
2023-04-03T02:09:01.200Z,1028.16
2023-04-03T02:10:01.488Z,1028.15
2023-04-03T02:11:01.218Z,1028.19
2023-04-03T02:12:01.126Z,1028.19
2023-04-03T02:13:01.160Z,1028.17
2023-04-03T02:14:01.774Z,1028.21
2023-04-03T02:15:01.045Z,1028.23
2023-04-03T02:16:01.157Z,1028.19
2023-04-03T02:17:01.174Z,1028.2
2023-04-03T02:18:01.522Z,1028.18
2023-04-03T02:19:02.084Z,1028.21
2023-04-03T02:20:01.232Z,1028.22
2023-04-03T02:21:01.084Z,1028.26
2023-04-03T02:22:01.079Z,1028.18
2023-04-03T02:23:01.095Z,1028.28
2023-04-03T02:24:00.767Z,1028.22
2023-04-03T02:25:00.507Z,1028.22
2023-04-03T02:26:00.254Z,1028.31
2023-04-03T02:26:59.872Z,1028.29
2023-04-03T02:28:01.931Z,1028.26
2023-04-03T02:29:01.128Z,1028.3
2023-04-03T02:30:01.527Z,1028.29
2023-04-03T02:31:01.379Z,1028.3
2023-04-03T02:32:01.708Z,1028.32
2023-04-03T02:33:01.108Z,1028.31
2023-04-03T02:34:01.051Z,1028.35
2023-04-03T02:35:01.476Z,1028.32
2023-04-03T02:36:01.083Z,1028.32
2023-04-03T02:37:01.087Z,1028.33
2023-04-03T02:38:01.818Z,1028.34
2023-04-03T02:39:01.386Z,1028.34
2023-04-03T02:40:02.100Z,1028.32
2023-04-03T02:41:01.149Z,1028.34
2023-04-03T02:42:01.021Z,1028.36
2023-04-03T02:43:01.133Z,1028.37
2023-04-03T02:44:01.119Z,1028.43
2023-04-03T02:45:01.147Z,1028.37
2023-04-03T02:46:01.161Z,1028.4
2023-04-03T02:47:01.132Z,1028.42
2023-04-03T02:48:01.887Z,1028.38
2023-04-03T02:49:01.033Z,1028.43
2023-04-03T02:50:01.199Z,1028.43
2023-04-03T02:51:01.084Z,1028.41
2023-04-03T02:52:01.148Z,1028.44
2023-04-03T02:53:01.096Z,1028.49
2023-04-03T02:54:01.088Z,1028.42
2023-04-03T02:55:01.061Z,1028.46
2023-04-03T02:56:01.103Z,1028.43
2023-04-03T02:57:01.372Z,1028.47
2023-04-03T02:58:02.203Z,1028.44
2023-04-03T02:59:02.000Z,1028.51
2023-04-03T03:00:01.121Z,1028.52
2023-04-03T03:01:01.115Z,1028.53
2023-04-03T03:02:01.184Z,1028.52
2023-04-03T03:03:01.350Z,1028.5
2023-04-03T03:04:01.455Z,1028.46
2023-04-03T03:05:02.579Z,1028.47
2023-04-03T03:06:02.636Z,1028.52
2023-04-03T03:07:01.076Z,1028.5
2023-04-03T03:08:01.077Z,1028.51
2023-04-03T03:09:01.185Z,1028.51
2023-04-03T03:10:01.082Z,1028.52
2023-04-03T03:11:01.094Z,1028.53
2023-04-03T03:12:01.115Z,1028.5
2023-04-03T03:13:00.901Z,1028.55
2023-04-03T03:14:01.564Z,1028.54
2023-04-03T03:15:01.140Z,1028.52
2023-04-03T03:16:01.194Z,1028.49
2023-04-03T03:17:01.138Z,1028.5
2023-04-03T03:18:03.386Z,1028.52
2023-04-03T03:19:00.795Z,1028.5
2023-04-03T03:20:00.438Z,1028.55
2023-04-03T03:21:01.039Z,1028.55
2023-04-03T03:22:01.073Z,1028.57
2023-04-03T03:23:06.263Z,1028.59
2023-04-03T03:24:01.064Z,1028.6
2023-04-03T03:25:01.077Z,1028.62
2023-04-03T03:26:01.054Z,1028.61
2023-04-03T03:27:01.115Z,1028.57
2023-04-03T03:28:09.086Z,1028.58
2023-04-03T03:29:01.090Z,1028.64
2023-04-03T03:30:01.101Z,1028.6
2023-04-03T03:31:01.173Z,1028.61
2023-04-03T03:32:01.223Z,1028.64
2023-04-03T03:33:12.033Z,1028.61
2023-04-03T03:34:03.696Z,1028.65
2023-04-03T03:35:01.748Z,1028.64
2023-04-03T03:36:01.297Z,1028.66
2023-04-03T03:37:01.051Z,1028.69
2023-04-03T03:38:14.778Z,1028.7
2023-04-03T03:39:01.059Z,1028.7
2023-04-03T03:40:01.409Z,1028.64
2023-04-03T03:41:01.457Z,1028.68
2023-04-03T03:42:02.272Z,1028.64
2023-04-03T03:43:01.068Z,1028.72
2023-04-03T03:44:01.081Z,1028.68
2023-04-03T03:45:01.086Z,1028.72
2023-04-03T03:46:01.185Z,1028.69
2023-04-03T03:47:01.501Z,1028.75
2023-04-03T03:48:01.198Z,1028.73
2023-04-03T03:49:01.880Z,1028.68
2023-04-03T03:50:01.136Z,1028.75
2023-04-03T03:51:01.134Z,1028.76
2023-04-03T03:52:01.059Z,1028.76
2023-04-03T03:53:01.141Z,1028.75
2023-04-03T03:54:01.048Z,1028.75
2023-04-03T03:55:01.055Z,1028.71
2023-04-03T03:56:01.171Z,1028.74
2023-04-03T03:57:01.067Z,1028.74
2023-04-03T03:58:01.081Z,1028.79
2023-04-03T03:59:04.269Z,1028.71
2023-04-03T04:00:16.429Z,1028.72
2023-04-03T04:01:02.627Z,1028.76
2023-04-03T04:02:01.518Z,1028.74
2023-04-03T04:03:02.120Z,1028.71
2023-04-03T04:04:01.162Z,1028.71
2023-04-03T04:05:01.281Z,1028.75
2023-04-03T04:06:00.681Z,1028.75
2023-04-03T04:07:00.324Z,1028.74
2023-04-03T04:07:59.852Z,1028.75
2023-04-03T04:09:02.472Z,1028.74
2023-04-03T04:10:02.485Z,1028.77
2023-04-03T04:11:01.073Z,1028.72
2023-04-03T04:12:01.071Z,1028.72
2023-04-03T04:13:01.220Z,1028.73
2023-04-03T04:14:01.024Z,1028.69
2023-04-03T04:15:01.204Z,1028.71
2023-04-03T04:16:01.072Z,1028.73
2023-04-03T04:17:01.198Z,1028.71
2023-04-03T04:18:01.098Z,1028.72
2023-04-03T04:19:01.031Z,1028.71
2023-04-03T04:20:01.128Z,1028.76
2023-04-03T04:21:01.203Z,1028.71
2023-04-03T04:22:01.227Z,1028.77
2023-04-03T04:23:01.309Z,1028.79
2023-04-03T04:24:01.958Z,1028.79
2023-04-03T04:25:00.961Z,1028.78
2023-04-03T04:26:01.146Z,1028.8
2023-04-03T04:27:01.055Z,1028.8
2023-04-03T04:28:01.058Z,1028.81
2023-04-03T04:29:00.728Z,1028.83
2023-04-03T04:30:00.415Z,1028.83
2023-04-03T04:31:00.207Z,1028.84
2023-04-03T04:31:59.850Z,1028.82
2023-04-03T04:33:01.750Z,1028.87
2023-04-03T04:34:01.843Z,1028.86
2023-04-03T04:35:01.704Z,1028.89
2023-04-03T04:36:01.714Z,1028.86
2023-04-03T04:37:01.585Z,1028.9
2023-04-03T04:38:01.313Z,1028.88
2023-04-03T04:39:01.745Z,1028.89
2023-04-03T04:40:02.239Z,1028.87
2023-04-03T04:41:01.588Z,1028.86
2023-04-03T04:42:01.474Z,1028.84
2023-04-03T04:43:01.056Z,1028.85
2023-04-03T04:44:01.352Z,1028.9
2023-04-03T04:45:01.079Z,1028.88
2023-04-03T04:46:01.404Z,1028.89
2023-04-03T04:47:01.661Z,1028.92
2023-04-03T04:48:01.715Z,1028.9
2023-04-03T04:49:01.511Z,1028.91
2023-04-03T04:50:01.210Z,1028.93
2023-04-03T04:51:01.912Z,1028.92
2023-04-03T04:52:01.308Z,1028.95
2023-04-03T04:53:00.589Z,1028.94
2023-04-03T04:54:00.307Z,1028.92
2023-04-03T04:55:00.428Z,1028.93
2023-04-03T04:56:00.114Z,1028.99
2023-04-03T04:56:59.719Z,1029.03
2023-04-03T04:58:01.439Z,1029.01
2023-04-03T04:59:03.887Z,1029
2023-04-03T05:00:01.070Z,1029.01
2023-04-03T05:01:01.107Z,1029.03
2023-04-03T05:02:01.108Z,1029.02
2023-04-03T05:03:01.122Z,1029.06
2023-04-03T05:04:05.087Z,1029.05
2023-04-03T05:05:03.006Z,1029.07
2023-04-03T05:06:01.364Z,1029.09
2023-04-03T05:07:01.375Z,1029.04
2023-04-03T05:08:01.398Z,1029.05
2023-04-03T05:09:06.932Z,1029.08
2023-04-03T05:10:01.139Z,1029.07
2023-04-03T05:11:01.149Z,1029.08
2023-04-03T05:12:01.136Z,1029.09
2023-04-03T05:13:01.144Z,1029.09
2023-04-03T05:14:08.774Z,1029.1
2023-04-03T05:15:01.085Z,1029.08
2023-04-03T05:16:01.260Z,1029.06
2023-04-03T05:17:02.085Z,1029.1
2023-04-03T05:18:01.222Z,1029.08
2023-04-03T05:19:12.761Z,1029.14
2023-04-03T05:20:01.901Z,1029.07
2023-04-03T05:21:01.761Z,1029.12
2023-04-03T05:22:01.773Z,1029.14
2023-04-03T05:23:01.762Z,1029.09
2023-04-03T05:24:14.686Z,1029.13
2023-04-03T05:25:01.346Z,1029.15
2023-04-03T05:26:01.951Z,1029.16
2023-04-03T05:27:02.184Z,1029.18
2023-04-03T05:28:01.223Z,1029.18
2023-04-03T05:29:01.164Z,1029.15
2023-04-03T05:30:01.180Z,1029.17
2023-04-03T05:31:00.946Z,1029.18
2023-04-03T05:32:01.114Z,1029.2
2023-04-03T05:33:01.111Z,1029.14
2023-04-03T05:34:00.552Z,1029.15
2023-04-03T05:35:01.409Z,1029.15
2023-04-03T05:36:01.442Z,1029.18
2023-04-03T05:37:02.185Z,1029.17
2023-04-03T05:38:02.031Z,1029.18
2023-04-03T05:39:01.298Z,1029.16
2023-04-03T05:40:01.135Z,1029.22
2023-04-03T05:41:01.125Z,1029.19
2023-04-03T05:42:01.122Z,1029.25
2023-04-03T05:43:01.117Z,1029.24
2023-04-03T05:44:01.124Z,1029.19
2023-04-03T05:45:01.222Z,1029.2
2023-04-03T05:46:01.601Z,1029.25
2023-04-03T05:47:01.044Z,1029.25
2023-04-03T05:48:02.399Z,1029.2
2023-04-03T05:49:02.281Z,1029.22
2023-04-03T05:50:01.111Z,1029.26
2023-04-03T05:51:01.080Z,1029.27
2023-04-03T05:52:01.025Z,1029.25
2023-04-03T05:53:01.028Z,1029.29
2023-04-03T05:54:00.782Z,1029.17
2023-04-03T05:55:01.235Z,1029.26
2023-04-03T05:56:01.107Z,1029.26
2023-04-03T05:57:01.946Z,1029.23
2023-04-03T05:58:01.449Z,1029.27
2023-04-03T05:59:01.382Z,1029.28
2023-04-03T06:00:01.218Z,1029.26
2023-04-03T06:01:02.577Z,1029.24
2023-04-03T06:02:01.593Z,1029.28
2023-04-03T06:03:01.387Z,1029.24
2023-04-03T06:04:01.452Z,1029.33
2023-04-03T06:05:01.163Z,1029.29
2023-04-03T06:06:01.853Z,1029.34
2023-04-03T06:07:01.056Z,1029.38
2023-04-03T06:08:01.876Z,1029.31
2023-04-03T06:09:02.047Z,1029.36
2023-04-03T06:10:01.472Z,1029.38
2023-04-03T06:11:01.465Z,1029.38
2023-04-03T06:12:01.118Z,1029.4
2023-04-03T06:13:01.589Z,1029.38
2023-04-03T06:14:00.713Z,1029.42
2023-04-03T06:15:01.733Z,1029.44
2023-04-03T06:16:01.115Z,1029.42
2023-04-03T06:17:01.174Z,1029.49
2023-04-03T06:18:01.208Z,1029.46
2023-04-03T06:19:01.947Z,1029.44
2023-04-03T06:20:02.487Z,1029.46
2023-04-03T06:21:01.048Z,1029.45
2023-04-03T06:22:01.056Z,1029.37
2023-04-03T06:23:01.068Z,1029.42
2023-04-03T06:24:01.067Z,1029.42
2023-04-03T06:25:01.082Z,1029.44
2023-04-03T06:26:01.160Z,1029.37
2023-04-03T06:27:01.077Z,1029.45
2023-04-03T06:28:01.113Z,1029.43
2023-04-03T06:29:01.352Z,1029.47
2023-04-03T06:30:01.114Z,1029.44
2023-04-03T06:31:02.068Z,1029.47
2023-04-03T06:32:02.708Z,1029.46
2023-04-03T06:33:01.208Z,1029.42
2023-04-03T06:34:00.659Z,1029.49
2023-04-03T06:35:00.316Z,1029.49
2023-04-03T06:36:00.093Z,1029.48
2023-04-03T06:37:00.018Z,1029.49
2023-04-03T06:37:59.901Z,1029.48
2023-04-03T06:38:59.708Z,1029.51
2023-04-03T06:40:01.545Z,1029.55
2023-04-03T06:41:01.323Z,1029.56
2023-04-03T06:42:02.741Z,1029.58
2023-04-03T06:43:04.049Z,1029.57
2023-04-03T06:44:01.400Z,1029.61
2023-04-03T06:45:01.031Z,1029.56
2023-04-03T06:46:01.160Z,1029.54
2023-04-03T06:47:01.501Z,1029.59
2023-04-03T06:48:01.186Z,1029.55
2023-04-03T06:49:01.434Z,1029.58
2023-04-03T06:50:04.308Z,1029.56
2023-04-03T06:51:02.098Z,1029.61
2023-04-03T06:52:02.544Z,1029.63
2023-04-03T06:53:01.042Z,1029.54
2023-04-03T06:54:00.857Z,1029.58
2023-04-03T06:55:05.928Z,1029.61
2023-04-03T06:56:01.542Z,1029.59
2023-04-03T06:57:01.136Z,1029.64
2023-04-03T06:58:01.077Z,1029.67
2023-04-03T06:59:01.090Z,1029.66
2023-04-03T07:00:09.449Z,1029.73
2023-04-03T07:01:01.105Z,1029.68
2023-04-03T07:02:01.418Z,1029.73
2023-04-03T07:03:01.088Z,1029.74
2023-04-03T07:04:01.147Z,1029.75
2023-04-03T07:05:11.491Z,1029.74
2023-04-03T07:06:01.122Z,1029.78
2023-04-03T07:07:01.163Z,1029.74
2023-04-03T07:08:01.032Z,1029.74
2023-04-03T07:09:01.240Z,1029.78
2023-04-03T07:10:15.225Z,1029.8
2023-04-03T07:11:02.780Z,1029.84
2023-04-03T07:12:01.293Z,1029.82
2023-04-03T07:13:02.522Z,1029.81
2023-04-03T07:14:00.888Z,1029.83
2023-04-03T07:15:01.126Z,1029.85
2023-04-03T07:16:01.138Z,1029.71
2023-04-03T07:17:01.097Z,1029.79
2023-04-03T07:18:00.808Z,1029.87
2023-04-03T07:19:00.487Z,1029.82
2023-04-03T07:20:00.508Z,1029.79
2023-04-03T07:21:00.219Z,1029.86
2023-04-03T07:21:59.877Z,1029.83
2023-04-03T07:23:00.104Z,1029.85
2023-04-03T07:24:00.647Z,1029.81
2023-04-03T07:25:00.233Z,1029.86
2023-04-03T07:25:59.904Z,1029.87
2023-04-03T07:26:59.508Z,1029.85
2023-04-03T07:28:04.153Z,1029.84
2023-04-03T07:29:01.080Z,1029.89
2023-04-03T07:30:01.242Z,1029.92
2023-04-03T07:31:01.041Z,1029.84
2023-04-03T07:32:01.168Z,1029.88
2023-04-03T07:33:01.160Z,1029.89
2023-04-03T07:34:00.896Z,1029.94
2023-04-03T07:35:02.353Z,1029.88
2023-04-03T07:36:01.602Z,1029.89
2023-04-03T07:37:00.625Z,1029.87
2023-04-03T07:38:00.294Z,1029.91
2023-04-03T07:38:59.901Z,1029.91
2023-04-03T07:39:59.496Z,1029.89
2023-04-03T07:41:01.156Z,1029.89
2023-04-03T07:42:01.160Z,1029.96
2023-04-03T07:43:01.052Z,1029.94
2023-04-03T07:44:01.086Z,1029.93
2023-04-03T07:45:01.029Z,1029.93
2023-04-03T07:46:01.535Z,1029.89
2023-04-03T07:47:01.163Z,1030.03
2023-04-03T07:48:02.864Z,1029.99
2023-04-03T07:49:01.099Z,1030
2023-04-03T07:50:01.104Z,1030.04
2023-04-03T07:51:01.139Z,1029.99
2023-04-03T07:52:01.118Z,1029.99
2023-04-03T07:53:01.819Z,1029.95
2023-04-03T07:54:00.989Z,1029.95
2023-04-03T07:55:01.514Z,1029.9
2023-04-03T07:56:01.156Z,1029.94
2023-04-03T07:57:01.067Z,1029.9
2023-04-03T07:58:01.048Z,1029.94
2023-04-03T07:59:01.087Z,1029.98
2023-04-03T08:00:01.070Z,1029.95
2023-04-03T08:01:01.882Z,1029.95
2023-04-03T08:02:05.355Z,1029.97
2023-04-03T08:03:01.275Z,1029.98
2023-04-03T08:04:01.379Z,1029.98
2023-04-03T08:05:08.335Z,1029.95
2023-04-03T08:06:02.744Z,1029.94
2023-04-03T08:07:01.286Z,1030.01
2023-04-03T08:08:02.534Z,1029.96
2023-04-03T08:09:02.538Z,1030
2023-04-03T08:10:01.052Z,1029.96
2023-04-03T08:11:01.340Z,1029.98
2023-04-03T08:12:01.344Z,1030
2023-04-03T08:13:02.099Z,1029.99
2023-04-03T08:14:01.848Z,1029.95
2023-04-03T08:15:00.857Z,1029.94
2023-04-03T08:16:00.434Z,1029.93
2023-04-03T08:17:00.169Z,1029.94
2023-04-03T08:17:59.992Z,1030.01
2023-04-03T08:19:00.024Z,1029.96
2023-04-03T08:19:59.647Z,1029.96
2023-04-03T08:21:01.424Z,1029.99
2023-04-03T08:22:04.142Z,1029.93
2023-04-03T08:23:02.640Z,1029.93
2023-04-03T08:24:01.117Z,1029.95
2023-04-03T08:25:01.037Z,1029.93
2023-04-03T08:26:01.039Z,1029.91
2023-04-03T08:27:01.154Z,1029.97
2023-04-03T08:28:01.136Z,1029.94
2023-04-03T08:29:01.119Z,1029.92
2023-04-03T08:30:03.891Z,1029.97
2023-04-03T08:31:03.194Z,1029.93
2023-04-03T08:32:02.029Z,1029.94
2023-04-03T08:33:01.873Z,1029.95
2023-04-03T08:34:01.092Z,1029.92
2023-04-03T08:35:00.696Z,1029.88
2023-04-03T08:36:05.273Z,1029.88
2023-04-03T08:37:01.387Z,1029.98
2023-04-03T08:38:01.469Z,1029.94
2023-04-03T08:39:02.104Z,1029.96
2023-04-03T08:40:02.797Z,1029.91
2023-04-03T08:41:08.894Z,1030
2023-04-03T08:42:01.123Z,1029.94
2023-04-03T08:43:01.134Z,1029.93
2023-04-03T08:44:01.145Z,1030
2023-04-03T08:45:01.148Z,1029.95
2023-04-03T08:46:11.265Z,1029.97
2023-04-03T08:47:01.483Z,1029.95
2023-04-03T08:48:00.978Z,1030
2023-04-03T08:49:01.156Z,1029.96
2023-04-03T08:50:10.817Z,1030
2023-04-03T08:51:14.198Z,1030.06
2023-04-03T08:52:01.753Z,1030.04
2023-04-03T08:53:01.850Z,1030.02
2023-04-03T08:54:02.527Z,1030.05
2023-04-03T08:55:01.472Z,1030.03
2023-04-03T08:56:17.131Z,1029.99
2023-04-03T08:57:01.550Z,1030.06
2023-04-03T08:58:01.114Z,1030.05
2023-04-03T08:59:01.081Z,1030.06
2023-04-03T09:00:01.489Z,1030.06
2023-04-03T09:01:01.986Z,1030.03
2023-04-03T09:02:00.847Z,1030.04
2023-04-03T09:03:00.606Z,1030.1
2023-04-03T09:04:00.387Z,1030.11
2023-04-03T09:05:00.134Z,1030.05
2023-04-03T09:05:59.829Z,1030.07
2023-04-03T09:07:02.276Z,1030.02
2023-04-03T09:08:01.874Z,1030.04
2023-04-03T09:09:02.928Z,1030.04
2023-04-03T09:10:02.321Z,1030.09
2023-04-03T09:11:01.341Z,1030.02
2023-04-03T09:12:02.630Z,1030.03
2023-04-03T09:13:02.017Z,1030
2023-04-03T09:14:01.230Z,1030.03
2023-04-03T09:15:00.817Z,1030.03
2023-04-03T09:16:00.470Z,1029.97
2023-04-03T09:17:00.363Z,1029.94
2023-04-03T09:18:00.330Z,1029.98
2023-04-03T09:19:00.011Z,1029.98
2023-04-03T09:19:59.556Z,1029.98
2023-04-03T09:21:01.256Z,1029.99
2023-04-03T09:22:01.857Z,1029.92
2023-04-03T09:23:01.893Z,1030
2023-04-03T09:24:01.038Z,1029.95
2023-04-03T09:25:01.072Z,1029.97
2023-04-03T09:26:01.237Z,1029.96
2023-04-03T09:27:00.831Z,1029.97
2023-04-03T09:28:01.482Z,1029.97
2023-04-03T09:29:01.100Z,1030
2023-04-03T09:30:01.256Z,1029.94
2023-04-03T09:31:01.890Z,1030.01
2023-04-03T09:32:01.669Z,1029.96
2023-04-03T09:33:00.693Z,1030
2023-04-03T09:34:00.436Z,1030
2023-04-03T09:35:03.818Z,1029.96
2023-04-03T09:36:01.065Z,1029.95
2023-04-03T09:37:01.436Z,1030
2023-04-03T09:38:01.280Z,1029.98
2023-04-03T09:39:01.065Z,1029.94
2023-04-03T09:40:01.087Z,1029.98
2023-04-03T09:41:01.813Z,1029.97
2023-04-03T09:42:01.985Z,1029.97
2023-04-03T09:43:02.401Z,1029.95
2023-04-03T09:44:00.674Z,1029.92
2023-04-03T09:45:00.465Z,1029.95
2023-04-03T09:46:00.495Z,1029.96
2023-04-03T09:47:00.250Z,1029.96
2023-04-03T09:47:59.927Z,1029.95
2023-04-03T09:49:08.112Z,1029.94
2023-04-03T09:50:01.047Z,1029.98
2023-04-03T09:51:01.053Z,1029.91
2023-04-03T09:52:01.040Z,1029.94
2023-04-03T09:53:00.749Z,1029.94
2023-04-03T09:54:00.539Z,1029.92
2023-04-03T09:55:00.236Z,1029.88
2023-04-03T09:56:00.056Z,1029.9
2023-04-03T09:56:59.635Z,1029.93
2023-04-03T09:58:01.755Z,1029.9
2023-04-03T09:59:01.984Z,1029.9
2023-04-03T10:00:01.355Z,1029.96
2023-04-03T10:01:01.120Z,1029.89
2023-04-03T10:02:01.110Z,1029.88
2023-04-03T10:03:01.419Z,1029.95
2023-04-03T10:04:01.268Z,1029.87
2023-04-03T10:05:09.601Z,1029.88
2023-04-03T10:06:03.168Z,1029.86
2023-04-03T10:07:01.143Z,1029.83
2023-04-03T10:08:03.789Z,1029.84
2023-04-03T10:09:01.052Z,1029.82
2023-04-03T10:10:01.198Z,1029.95
2023-04-03T10:11:01.223Z,1029.87
2023-04-03T10:12:02.145Z,1029.88
2023-04-03T10:13:01.068Z,1029.82
2023-04-03T10:14:01.053Z,1029.87
2023-04-03T10:15:00.776Z,1029.87
2023-04-03T10:16:00.374Z,1029.8
2023-04-03T10:17:00.208Z,1029.76
2023-04-03T10:18:02.783Z,1029.82
2023-04-03T10:19:01.293Z,1029.84
2023-04-03T10:20:01.497Z,1029.74
2023-04-03T10:21:02.027Z,1029.75
2023-04-03T10:22:02.698Z,1029.81
2023-04-03T10:23:01.047Z,1029.77
2023-04-03T10:24:01.061Z,1029.77
2023-04-03T10:25:01.056Z,1029.81
2023-04-03T10:26:01.058Z,1029.82
2023-04-03T10:27:05.825Z,1029.8
2023-04-03T10:28:01.433Z,1029.72
2023-04-03T10:29:02.089Z,1029.75
2023-04-03T10:30:02.303Z,1029.82
2023-04-03T10:31:01.159Z,1029.74
2023-04-03T10:32:08.459Z,1029.75
2023-04-03T10:33:01.837Z,1029.8
2023-04-03T10:34:02.563Z,1029.75
2023-04-03T10:35:05.191Z,1029.74
2023-04-03T10:36:01.825Z,1029.76
2023-04-03T10:37:11.829Z,1029.76
2023-04-03T10:38:01.851Z,1029.81
2023-04-03T10:39:01.665Z,1029.8
2023-04-03T10:40:03.309Z,1029.81
2023-04-03T10:41:02.922Z,1029.79
2023-04-03T10:42:17.194Z,1029.78
2023-04-03T10:43:01.436Z,1029.77
2023-04-03T10:44:01.103Z,1029.75
2023-04-03T10:45:01.094Z,1029.75
2023-04-03T10:46:01.128Z,1029.73
2023-04-03T10:47:01.132Z,1029.73
2023-04-03T10:48:01.181Z,1029.71
2023-04-03T10:49:01.030Z,1029.69
2023-04-03T10:50:01.452Z,1029.77
2023-04-03T10:51:01.137Z,1029.73
2023-04-03T10:52:01.143Z,1029.79
2023-04-03T10:53:01.125Z,1029.71
2023-04-03T10:54:01.126Z,1029.68
2023-04-03T10:55:00.824Z,1029.69
2023-04-03T10:56:01.127Z,1029.66
2023-04-03T10:57:09.127Z,1029.69
2023-04-03T10:58:03.127Z,1029.63
2023-04-03T10:59:01.470Z,1029.64
2023-04-03T11:00:01.065Z,1029.61
2023-04-03T11:01:01.079Z,1029.65
2023-04-03T11:02:04.111Z,1029.66
2023-04-03T11:03:01.889Z,1029.64
2023-04-03T11:04:01.913Z,1029.6
2023-04-03T11:05:01.110Z,1029.62
2023-04-03T11:06:02.057Z,1029.64
2023-04-03T11:07:02.633Z,1029.67
2023-04-03T11:08:01.299Z,1029.69
2023-04-03T11:09:02.014Z,1029.63
2023-04-03T11:10:01.134Z,1029.72
2023-04-03T11:11:01.163Z,1029.68
2023-04-03T11:12:01.146Z,1029.68
2023-04-03T11:13:01.457Z,1029.65
2023-04-03T11:14:01.062Z,1029.62
2023-04-03T11:15:01.089Z,1029.61
2023-04-03T11:16:01.206Z,1029.64
2023-04-03T11:17:02.097Z,1029.67
2023-04-03T11:18:01.160Z,1029.59
2023-04-03T11:19:01.079Z,1029.54
2023-04-03T11:20:01.102Z,1029.55
2023-04-03T11:21:01.172Z,1029.61
2023-04-03T11:22:01.180Z,1029.56
2023-04-03T11:23:01.123Z,1029.62
2023-04-03T11:24:01.124Z,1029.58
2023-04-03T11:25:01.125Z,1029.64
2023-04-03T11:26:01.197Z,1029.6
2023-04-03T11:27:01.152Z,1029.62
2023-04-03T11:28:01.031Z,1029.63
2023-04-03T11:29:01.037Z,1029.62
2023-04-03T11:30:01.076Z,1029.65
2023-04-03T11:31:01.082Z,1029.64
2023-04-03T11:32:01.466Z,1029.72
2023-04-03T11:33:01.142Z,1029.62
2023-04-03T11:34:01.080Z,1029.64
2023-04-03T11:35:01.083Z,1029.62
2023-04-03T11:36:00.869Z,1029.63
2023-04-03T11:37:01.100Z,1029.61
2023-04-03T11:38:01.064Z,1029.65
2023-04-03T11:39:01.116Z,1029.62
2023-04-03T11:40:01.525Z,1029.6
2023-04-03T11:41:01.144Z,1029.58
2023-04-03T11:42:12.484Z,1029.58
2023-04-03T11:43:01.159Z,1029.65
2023-04-03T11:44:01.037Z,1029.59
2023-04-03T11:45:01.037Z,1029.67
2023-04-03T11:46:01.103Z,1029.63
2023-04-03T11:47:01.098Z,1029.59
2023-04-03T11:48:09.946Z,1029.57
2023-04-03T11:49:02.098Z,1029.59
2023-04-03T11:50:01.884Z,1029.61
2023-04-03T11:51:01.533Z,1029.66
2023-04-03T11:52:01.113Z,1029.61
2023-04-03T11:53:01.098Z,1029.54
2023-04-03T11:54:01.110Z,1029.55
2023-04-03T11:55:01.110Z,1029.51
2023-04-03T11:56:00.809Z,1029.48
2023-04-03T11:57:00.416Z,1029.54
2023-04-03T11:58:01.433Z,1029.54
2023-04-03T11:59:01.129Z,1029.54
2023-04-03T12:00:01.450Z,1029.53
2023-04-03T12:01:00.902Z,1029.53
2023-04-03T12:02:00.675Z,1029.51
2023-04-03T12:03:04.372Z,1029.53
2023-04-03T12:04:01.520Z,1029.5
2023-04-03T12:05:01.091Z,1029.5
2023-04-03T12:06:01.471Z,1029.47
2023-04-03T12:07:01.464Z,1029.52
2023-04-03T12:08:07.804Z,1029.51